Time;durP1;ratioP1;P1;durP2;ratioP2;P2;SDS_P1;SDS_P2;PMS_P1;PMS_P2;Temp;Humidity;BMP_temperature;BMP_pressure;BME280_temperature;BME280_humidity;BME280_pressure;Samples;Min_cycle;Max_cycle;Signal;HPM_P1;HPM_P2
2023/12/13 00:00:37;;;;;;;2.50;1.53;;;9.20;99.90;;;;;;5042203;28;20991;-82
2023/12/13 00:03:04;;;;;;;4.10;2.10;;;9.20;99.90;;;;;;5044903;28;20487;-82
2023/12/13 00:05:34;;;;;;;2.13;1.60;;;9.10;99.90;;;;;;5042984;28;20459;-82
2023/12/13 00:08:01;;;;;;;4.97;1.70;;;9.10;99.90;;;;;;5043733;28;20467;-83
2023/12/13 00:10:27;;;;;;;4.40;1.60;;;9.10;99.90;;;;;;5041966;28;20481;-83
2023/12/13 00:12:54;;;;;;;4.00;1.20;;;9.10;99.90;;;;;;5043917;28;20543;-82
2023/12/13 00:15:21;;;;;;;6.43;1.40;;;9.10;99.90;;;;;;5045593;28;20868;-82
2023/12/13 00:17:48;;;;;;;1.83;1.50;;;9.00;99.90;;;;;;5041194;28;20955;-82
2023/12/13 00:20:15;;;;;;;2.80;1.20;;;8.90;99.90;;;;;;5043767;28;20473;-82
2023/12/13 00:22:43;;;;;;;2.27;1.37;;;8.80;99.90;;;;;;5041355;28;20542;-83
2023/12/13 00:25:10;;;;;;;7.07;1.60;;;8.80;99.90;;;;;;5047403;28;20446;-83
2023/12/13 00:27:37;;;;;;;1.50;1.00;;;8.80;99.90;;;;;;5043851;28;20457;-83
2023/12/13 00:30:05;;;;;;;1.90;1.13;;;8.80;99.90;;;;;;5050805;28;20471;-82
2023/12/13 00:32:31;;;;;;;4.20;1.60;;;8.80;99.90;;;;;;5046772;28;20447;-82
2023/12/13 00:34:58;;;;;;;1.83;1.00;;;8.80;99.90;;;;;;5049502;28;20471;-82
2023/12/13 00:37:25;;;;;;;3.33;1.50;;;8.90;99.90;;;;;;5048399;28;20444;-82
2023/12/13 00:39:53;;;;;;;2.70;1.07;;;8.80;99.90;;;;;;5043002;28;20566;-83
2023/12/13 00:42:20;;;;;;;2.23;1.17;;;8.80;99.90;;;;;;5047559;28;20454;-82
2023/12/13 00:44:47;;;;;;;2.80;1.23;;;8.80;99.90;;;;;;5047954;28;20540;-82
2023/12/13 00:47:13;;;;;;;2.40;1.00;;;8.80;99.90;;;;;;5041293;28;20451;-81
2023/12/13 00:49:40;;;;;;;2.90;1.50;;;8.80;99.90;;;;;;5046607;28;20495;-83
2023/12/13 00:52:07;;;;;;;2.03;1.20;;;8.80;99.90;;;;;;5054324;28;20459;-82
2023/12/13 00:54:34;;;;;;;4.10;1.07;;;8.70;99.90;;;;;;5054802;28;20525;-82
2023/12/13 00:57:02;;;;;;;5.40;1.47;;;8.70;99.90;;;;;;5065535;28;20458;-82
2023/12/13 00:59:28;;;;;;;2.00;1.03;;;8.60;99.90;;;;;;5063881;28;20474;-81
2023/12/13 01:01:55;;;;;;;3.17;1.20;;;8.60;99.90;;;;;;5063866;28;20465;-81
2023/12/13 01:04:22;;;;;;;1.90;1.10;;;8.50;99.90;;;;;;5068241;28;20444;-82
2023/12/13 01:06:49;;;;;;;4.10;1.10;;;8.50;99.90;;;;;;5061567;28;20478;-82
2023/12/13 01:09:16;;;;;;;2.57;1.30;;;8.50;99.90;;;;;;5053779;28;20469;-82
2023/12/13 01:11:42;;;;;;;1.93;1.17;;;8.40;99.90;;;;;;5048667;28;20455;-83
2023/12/13 01:14:10;;;;;;;7.30;1.60;;;8.40;99.90;;;;;;5051028;28;20481;-83
2023/12/13 01:16:37;;;;;;;1.57;1.03;;;8.40;99.90;;;;;;5045767;28;20966;-83
2023/12/13 01:19:04;;;;;;;2.03;1.03;;;8.50;99.90;;;;;;5048692;28;20483;-83
2023/12/13 01:21:31;;;;;;;2.50;1.30;;;8.50;99.90;;;;;;5047423;28;20445;-83
2023/12/13 01:23:58;;;;;;;1.83;1.10;;;8.50;99.90;;;;;;5047931;28;20455;-82
2023/12/13 01:26:25;;;;;;;2.23;1.13;;;8.50;99.90;;;;;;5044876;28;20838;-82
2023/12/13 01:28:52;;;;;;;2.17;1.00;;;8.50;99.90;;;;;;5046035;28;20474;-82
2023/12/13 01:31:20;;;;;;;3.50;1.20;;;8.50;99.90;;;;;;5062305;28;20446;-81
2023/12/13 01:33:47;;;;;;;3.53;1.10;;;8.50;99.90;;;;;;5060508;28;20527;-82
2023/12/13 01:36:14;;;;;;;2.77;1.10;;;8.50;99.90;;;;;;5056895;28;20517;-81
2023/12/13 01:38:41;;;;;;;2.97;1.40;;;8.50;99.90;;;;;;5052935;28;20553;-82
2023/12/13 01:41:07;;;;;;;2.57;1.33;;;8.50;99.90;;;;;;5056704;28;20479;-81
2023/12/13 01:43:34;;;;;;;4.57;1.50;;;8.50;99.90;;;;;;5052467;28;20662;-82
2023/12/13 01:46:18;;;;;;;2.93;1.10;;;8.70;99.90;;;;;;5050596;28;20476;-83
2023/12/13 01:48:46;;;;;;;2.80;1.07;;;8.70;99.90;;;;;;5052984;28;20503;-82
2023/12/13 01:51:13;;;;;;;3.80;1.37;;;8.80;99.90;;;;;;5048798;28;20439;-82
2023/12/13 01:53:43;;;;;;;3.00;1.47;;;8.80;99.90;;;;;;5050774;28;20553;-82
2023/12/13 01:56:12;;;;;;;2.00;1.47;;;8.80;99.90;;;;;;5049637;28;20516;-83
2023/12/13 01:58:41;;;;;;;4.90;1.63;;;8.90;99.90;;;;;;5039474;28;21011;-83
2023/12/13 02:01:09;;;;;;;5.73;1.77;;;8.90;99.90;;;;;;5038271;28;20481;-82
2023/12/13 02:03:37;;;;;;;2.70;1.20;;;8.80;99.90;;;;;;5044192;28;20467;-82
2023/12/13 02:06:08;;;;;;;9.13;1.47;;;8.90;99.90;;;;;;5040634;28;20446;-83
2023/12/13 02:08:35;;;;;;;2.63;1.30;;;8.90;99.90;;;;;;5038247;28;20479;-83
2023/12/13 02:11:02;;;;;;;9.63;1.50;;;8.90;99.90;;;;;;5037417;28;20926;-83
2023/12/13 02:13:29;;;;;;;4.87;1.67;;;8.90;99.90;;;;;;5038266;28;20454;-83
2023/12/13 02:15:56;;;;;;;2.07;1.23;;;8.80;99.90;;;;;;5037949;28;20598;-83
2023/12/13 02:18:23;;;;;;;5.17;1.40;;;8.90;99.90;;;;;;5037927;28;20480;-83
2023/12/13 02:20:51;;;;;;;4.87;1.90;;;8.90;99.90;;;;;;5037499;28;20459;-83
2023/12/13 02:23:19;;;;;;;2.57;1.20;;;8.90;99.90;;;;;;5037521;28;20541;-82
2023/12/13 02:25:53;;;;;;;4.30;1.40;;;8.80;99.90;;;;;;5042952;28;20455;-83
2023/12/13 02:28:21;;;;;;;3.10;1.83;;;8.90;99.90;;;;;;5037803;28;20559;-83
2023/12/13 02:30:53;;;;;;;6.47;2.30;;;8.90;99.90;;;;;;5036835;28;20950;-83
2023/12/13 02:33:23;;;;;;;2.93;1.60;;;8.90;99.90;;;;;;5037276;28;20482;-83
2023/12/13 02:35:57;;;;;;;4.27;1.77;;;8.90;99.90;;;;;;5031207;28;20588;-83
2023/12/13 02:38:25;;;;;;;1.67;1.27;;;8.90;99.90;;;;;;5042944;28;20494;-84
2023/12/13 02:40:53;;;;;;;5.20;1.47;;;8.90;99.90;;;;;;5028713;28;20458;-84
2023/12/13 02:43:20;;;;;;;4.90;1.93;;;9.00;99.90;;;;;;5037364;28;20459;-82
2023/12/13 02:45:47;;;;;;;4.97;2.00;;;9.00;99.90;;;;;;5044038;28;20463;-82
2023/12/13 02:48:14;;;;;;;3.80;1.87;;;9.00;99.90;;;;;;5044150;28;20486;-82
2023/12/13 02:50:40;;;;;;;5.50;2.10;;;9.10;99.90;;;;;;5027850;28;20459;-83
2023/12/13 02:53:07;;;;;;;5.47;1.80;;;9.00;99.90;;;;;;5037081;28;20500;-83
2023/12/13 02:55:35;;;;;;;5.70;1.97;;;8.90;99.90;;;;;;5037026;28;20866;-84
2023/12/13 02:58:02;;;;;;;4.53;1.70;;;9.00;99.90;;;;;;5037374;28;20464;-84
2023/12/13 03:00:29;;;;;;;2.47;1.50;;;9.10;99.90;;;;;;5036087;28;20466;-83
2023/12/13 03:02:57;;;;;;;3.10;1.70;;;9.10;99.90;;;;;;5038951;28;20488;-83
2023/12/13 03:05:24;;;;;;;6.33;1.60;;;9.10;99.90;;;;;;5036314;28;20537;-83
2023/12/13 03:07:53;;;;;;;3.43;1.53;;;9.20;99.90;;;;;;5036555;28;20466;-82
2023/12/13 03:10:20;;;;;;;3.30;1.83;;;9.20;99.90;;;;;;5039290;28;20480;-83
2023/12/13 03:12:48;;;;;;;2.40;1.40;;;9.10;99.90;;;;;;5036494;28;20462;-84
2023/12/13 03:15:15;;;;;;;3.90;1.50;;;9.10;99.90;;;;;;5036172;28;20590;-83
2023/12/13 03:17:42;;;;;;;5.57;2.40;;;9.10;99.90;;;;;;5032680;28;20450;-83
2023/12/13 03:20:11;;;;;;;5.10;2.00;;;9.00;99.90;;;;;;5039350;28;20478;-84
2023/12/13 03:22:38;;;;;;;3.70;1.43;;;9.00;99.90;;;;;;5036321;28;20543;-83
2023/12/13 03:25:05;;;;;;;6.57;2.30;;;9.10;99.90;;;;;;5036104;28;20458;-83
2023/12/13 03:27:32;;;;;;;2.80;1.40;;;9.10;99.90;;;;;;5035047;28;20451;-83
2023/12/13 03:30:00;;;;;;;7.40;2.10;;;9.10;99.90;;;;;;5040186;28;20479;-82
2023/12/13 03:32:27;;;;;;;4.60;2.10;;;9.10;99.90;;;;;;5041582;28;20463;-82
2023/12/13 03:34:54;;;;;;;4.83;1.53;;;9.20;99.90;;;;;;5034764;28;20545;-83
2023/12/13 03:37:21;;;;;;;3.77;1.80;;;9.20;99.90;;;;;;5034410;28;20456;-82
2023/12/13 03:39:48;;;;;;;8.87;2.20;;;9.20;99.90;;;;;;5034103;28;20483;-83
2023/12/13 03:42:15;;;;;;;2.57;1.60;;;9.10;99.90;;;;;;5035210;28;20460;-83
2023/12/13 03:44:42;;;;;;;5.43;1.50;;;9.10;99.90;;;;;;5034996;28;20453;-82
2023/12/13 03:47:10;;;;;;;3.97;1.80;;;9.10;99.90;;;;;;5038064;28;20443;-82
2023/12/13 03:49:36;;;;;;;7.47;1.73;;;9.20;99.90;;;;;;5034196;28;21007;-82
2023/12/13 03:52:04;;;;;;;2.47;1.50;;;9.20;99.90;;;;;;5034138;28;20952;-82
2023/12/13 03:54:30;;;;;;;6.47;1.70;;;9.20;99.90;;;;;;5035688;28;20461;-82
2023/12/13 03:57:02;;;;;;;8.03;1.37;;;9.20;99.90;;;;;;5039165;28;20464;-83
2023/12/13 03:59:29;;;;;;;3.53;1.83;;;9.20;99.90;;;;;;5031670;28;20473;-81
2023/12/13 04:01:56;;;;;;;3.70;1.23;;;9.20;99.90;;;;;;5045259;28;20460;-79
2023/12/13 04:04:24;;;;;;;6.60;1.80;;;9.20;99.90;;;;;;5048289;28;20526;-80
2023/12/13 04:06:51;;;;;;;5.87;2.37;;;9.10;99.90;;;;;;5050517;28;20558;-80
2023/12/13 04:09:18;;;;;;;4.50;1.77;;;9.10;99.90;;;;;;5050350;28;20551;-81
2023/12/13 04:11:44;;;;;;;7.90;2.47;;;9.20;99.90;;;;;;5051589;28;20452;-81
2023/12/13 04:14:11;;;;;;;9.37;2.00;;;9.10;99.90;;;;;;5040305;28;20461;-82
2023/12/13 04:16:38;;;;;;;9.03;1.90;;;9.10;99.90;;;;;;5036832;28;20862;-83
2023/12/13 04:19:05;;;;;;;6.53;2.03;;;9.10;99.90;;;;;;5034969;28;20566;-81
2023/12/13 04:21:32;;;;;;;4.90;1.93;;;9.00;99.90;;;;;;5035878;28;20454;-82
2023/12/13 04:24:00;;;;;;;6.50;1.90;;;9.00;99.90;;;;;;5035615;28;20509;-83
2023/12/13 04:26:27;;;;;;;4.07;1.60;;;9.00;99.90;;;;;;5036270;28;20535;-82
2023/12/13 04:28:56;;;;;;;5.23;2.33;;;9.00;99.90;;;;;;5035143;28;20558;-83
2023/12/13 04:31:23;;;;;;;7.93;2.03;;;9.00;99.90;;;;;;5040095;28;20624;-82
2023/12/13 04:33:50;;;;;;;6.20;3.13;;;9.00;99.90;;;;;;5037482;28;20491;-82
2023/12/13 04:36:16;;;;;;;5.23;2.13;;;9.00;99.90;;;;;;5034519;28;20488;-81
2023/12/13 04:38:45;;;;;;;5.80;1.80;;;8.90;99.90;;;;;;5049015;28;20850;-80
2023/12/13 04:41:11;;;;;;;2.33;1.70;;;9.00;99.90;;;;;;5033303;28;20995;-82
2023/12/13 04:43:38;;;;;;;5.67;2.10;;;9.00;99.90;;;;;;5034398;28;20565;-81
2023/12/13 04:46:05;;;;;;;5.20;1.40;;;9.00;99.90;;;;;;5034211;28;20463;-82
2023/12/13 04:48:32;;;;;;;3.47;2.17;;;9.00;99.90;;;;;;5033515;28;20486;-83
2023/12/13 04:50:59;;;;;;;6.20;2.17;;;9.10;99.90;;;;;;5032475;28;20447;-82
2023/12/13 04:53:25;;;;;;;5.03;2.17;;;9.00;99.90;;;;;;5037804;28;21011;-82
2023/12/13 04:55:56;;;;;;;4.03;1.60;;;9.00;99.90;;;;;;5035320;28;20847;-82
2023/12/13 04:58:23;;;;;;;5.00;1.63;;;9.00;99.90;;;;;;5034772;28;20851;-82
2023/12/13 05:00:50;;;;;;;5.60;2.60;;;9.00;99.90;;;;;;5033894;28;20831;-82
2023/12/13 05:03:17;;;;;;;6.23;2.23;;;9.10;99.90;;;;;;5040659;28;20983;-81
2023/12/13 05:05:43;;;;;;;11.67;2.10;;;9.10;99.90;;;;;;5034219;28;20467;-83
2023/12/13 05:08:12;;;;;;;5.47;1.90;;;9.00;99.90;;;;;;5033497;28;20458;-83
2023/12/13 05:10:40;;;;;;;4.30;1.87;;;9.00;99.90;;;;;;5033404;28;20491;-83
2023/12/13 05:13:09;;;;;;;4.43;1.90;;;9.20;99.90;;;;;;5034550;28;20456;-82
2023/12/13 05:15:35;;;;;;;3.00;1.80;;;9.10;99.90;;;;;;5033705;28;20495;-82
2023/12/13 05:18:03;;;;;;;2.10;1.40;;;9.00;99.90;;;;;;5033974;28;20466;-82
2023/12/13 05:20:30;;;;;;;6.80;2.00;;;9.10;99.90;;;;;;5033383;28;20544;-82
2023/12/13 05:22:56;;;;;;;10.30;2.13;;;9.20;99.90;;;;;;5034818;28;20459;-81
2023/12/13 05:25:23;;;;;;;6.40;1.53;;;9.10;99.90;;;;;;5032902;28;20457;-81
2023/12/13 05:27:50;;;;;;;4.10;2.20;;;9.20;99.90;;;;;;5026540;28;20456;-82
2023/12/13 05:30:23;;;;;;;8.07;3.10;;;9.10;99.90;;;;;;5033166;28;20479;-82
2023/12/13 05:32:56;;;;;;;10.40;1.73;;;9.10;99.90;;;;;;5039722;28;20468;-82
2023/12/13 05:35:23;;;;;;;4.57;1.80;;;9.10;99.90;;;;;;5033529;28;20479;-82
2023/12/13 05:37:50;;;;;;;8.90;2.40;;;9.10;99.90;;;;;;5036881;28;20459;-81
2023/12/13 05:40:16;;;;;;;4.83;2.80;;;9.10;99.90;;;;;;5036544;28;20489;-82
2023/12/13 05:42:44;;;;;;;6.93;2.00;;;9.10;99.90;;;;;;5037173;28;20472;-82
2023/12/13 05:45:10;;;;;;;6.47;2.50;;;9.10;99.90;;;;;;5037630;28;20463;-82
2023/12/13 05:47:39;;;;;;;8.70;3.00;;;9.20;99.90;;;;;;5044960;28;20454;-82
2023/12/13 05:50:07;;;;;;;12.90;3.10;;;9.20;99.90;;;;;;5041856;28;20498;-81
2023/12/13 05:52:35;;;;;;;3.70;2.07;;;9.20;99.90;;;;;;5037247;28;20459;-82
2023/12/13 05:55:01;;;;;;;7.40;2.70;;;9.20;99.90;;;;;;5037574;28;20459;-82
2023/12/13 05:57:28;;;;;;;5.80;3.30;;;9.20;99.90;;;;;;5037142;28;20490;-83
2023/12/13 05:59:55;;;;;;;3.90;1.70;;;9.20;99.90;;;;;;5037300;28;20964;-82
2023/12/13 06:02:22;;;;;;;4.73;2.80;;;9.20;99.90;;;;;;5042717;28;20831;-82
2023/12/13 06:04:50;;;;;;;10.50;3.20;;;9.20;99.90;;;;;;5038553;28;20466;-81
2023/12/13 06:07:17;;;;;;;6.77;2.60;;;9.20;99.90;;;;;;5039861;28;20480;-81
2023/12/13 06:09:44;;;;;;;8.70;2.33;;;9.10;99.90;;;;;;5039792;28;20479;-83
2023/12/13 06:12:13;;;;;;;4.83;2.60;;;9.10;99.90;;;;;;5042129;28;20479;-82
2023/12/13 06:14:40;;;;;;;7.40;2.97;;;9.10;99.90;;;;;;5038545;28;20462;-82
2023/12/13 06:17:06;;;;;;;6.07;2.73;;;9.10;99.90;;;;;;5045795;28;20512;-79
2023/12/13 06:19:33;;;;;;;8.90;3.27;;;9.00;99.90;;;;;;5042729;28;20575;-82
2023/12/13 06:22:01;;;;;;;6.73;2.67;;;9.00;99.90;;;;;;5041001;28;20644;-83
2023/12/13 06:24:28;;;;;;;8.53;2.77;;;9.00;99.90;;;;;;5031363;28;20466;-82
2023/12/13 06:26:55;;;;;;;6.60;3.33;;;9.10;99.90;;;;;;5037383;28;20524;-80
2023/12/13 06:29:21;;;;;;;6.43;2.80;;;9.10;99.90;;;;;;5036463;28;20511;-79
2023/12/13 06:31:48;;;;;;;5.60;2.80;;;9.10;99.90;;;;;;5037919;28;20481;-80
2023/12/13 06:34:15;;;;;;;10.00;3.03;;;9.20;99.90;;;;;;5037544;28;20463;-79
2023/12/13 06:36:42;;;;;;;6.90;3.60;;;9.20;99.90;;;;;;5032482;28;20496;-79
2023/12/13 06:39:11;;;;;;;10.73;3.20;;;9.30;99.90;;;;;;5037495;28;21017;-79
2023/12/13 06:41:39;;;;;;;10.20;3.13;;;9.30;99.90;;;;;;5036532;28;20991;-79
2023/12/13 06:44:06;;;;;;;9.00;3.70;;;9.20;99.90;;;;;;5036680;28;20464;-78
2023/12/13 06:46:35;;;;;;;6.30;2.70;;;9.30;99.90;;;;;;5034997;28;20468;-80
2023/12/13 06:49:04;;;;;;;14.33;3.67;;;9.40;99.90;;;;;;5037326;28;20519;-79
2023/12/13 06:51:31;;;;;;;7.90;3.57;;;9.50;99.90;;;;;;5036627;28;20470;-80
2023/12/13 06:53:57;;;;;;;12.17;3.00;;;9.50;99.90;;;;;;5036057;28;20453;-79
2023/12/13 06:56:25;;;;;;;8.00;2.70;;;9.50;99.90;;;;;;5035020;28;20496;-79
2023/12/13 06:58:52;;;;;;;3.90;2.23;;;9.50;99.90;;;;;;5035221;28;20476;-80
2023/12/13 07:01:20;;;;;;;6.73;2.80;;;9.50;99.90;;;;;;5034373;28;20456;-78
2023/12/13 07:03:47;;;;;;;10.43;3.63;;;9.50;99.90;;;;;;5035343;28;20521;-78
2023/12/13 07:06:16;;;;;;;10.47;3.13;;;9.40;99.90;;;;;;5034214;28;20466;-79
2023/12/13 07:08:42;;;;;;;7.57;3.63;;;9.40;99.90;;;;;;5038034;28;20473;-79
2023/12/13 07:11:10;;;;;;;8.20;3.37;;;9.50;99.90;;;;;;5042490;28;20519;-78
2023/12/13 07:13:38;;;;;;;12.27;4.40;;;9.40;99.90;;;;;;5042168;28;20482;-78
2023/12/13 07:16:05;;;;;;;9.77;3.43;;;9.40;99.90;;;;;;5045429;28;20495;-78
2023/12/13 07:18:35;;;;;;;11.53;4.10;;;9.40;99.90;;;;;;5040576;28;20472;-78
2023/12/13 07:21:03;;;;;;;9.10;2.80;;;9.50;99.90;;;;;;5033450;28;20460;-80
2023/12/13 07:23:31;;;;;;;9.67;3.10;;;9.40;99.90;;;;;;5046559;28;20458;-81
2023/12/13 07:25:58;;;;;;;9.47;4.13;;;9.40;99.90;;;;;;5036686;28;20975;-80
2023/12/13 07:28:25;;;;;;;10.00;4.10;;;9.30;99.90;;;;;;5036780;28;20483;-80
2023/12/13 07:30:53;;;;;;;15.17;4.20;;;9.30;99.90;;;;;;5042789;28;20452;-80
2023/12/13 07:33:38;;;;;;;12.47;3.67;;;9.40;99.90;;;;;;5033885;28;20547;-82
2023/12/13 07:36:05;;;;;;;10.00;3.97;;;9.40;99.90;;;;;;5029289;28;20480;-81
2023/12/13 07:38:53;;;;;;;9.60;3.63;;;9.40;99.90;;;;;;5034372;28;20467;-80
2023/12/13 07:41:20;;;;;;;6.83;2.80;;;9.40;99.90;;;;;;5031202;28;20806;-80
2023/12/13 07:43:47;;;;;;;7.37;2.97;;;9.40;99.90;;;;;;5038016;28;20471;-81
2023/12/13 07:46:15;;;;;;;11.73;3.00;;;9.40;99.90;;;;;;5035310;28;20458;-80
2023/12/13 07:48:42;;;;;;;10.03;3.33;;;9.40;99.90;;;;;;5038862;28;20480;-80
2023/12/13 07:51:09;;;;;;;10.13;3.40;;;9.40;99.90;;;;;;5035015;28;20444;-79
2023/12/13 07:53:36;;;;;;;7.93;3.43;;;9.40;99.90;;;;;;5031542;28;20456;-80
2023/12/13 07:56:02;;;;;;;7.10;3.50;;;9.40;99.90;;;;;;5036181;28;20871;-80
2023/12/13 07:58:29;;;;;;;17.10;3.60;;;9.30;99.90;;;;;;5027349;28;20476;-79
2023/12/13 08:00:56;;;;;;;8.00;2.63;;;9.40;99.90;;;;;;5029438;28;20571;-79
2023/12/13 08:03:24;;;;;;;7.30;3.70;;;9.50;99.90;;;;;;5034119;28;20455;-79
2023/12/13 08:05:51;;;;;;;9.17;2.93;;;9.50;99.90;;;;;;5029049;28;20454;-79
2023/12/13 08:08:18;;;;;;;9.60;3.67;;;9.60;99.90;;;;;;5035258;28;20482;-79
2023/12/13 08:10:46;;;;;;;7.27;3.23;;;9.50;99.90;;;;;;5026764;28;20991;-80
2023/12/13 08:13:13;;;;;;;9.07;3.20;;;9.50;99.90;;;;;;5027040;28;20463;-80
2023/12/13 08:15:39;;;;;;;7.43;2.83;;;9.60;99.90;;;;;;5035858;28;20452;-80
2023/12/13 08:18:06;;;;;;;6.80;2.97;;;9.60;99.90;;;;;;5034526;28;20463;-79
2023/12/13 08:20:35;;;;;;;9.90;2.73;;;9.70;99.90;;;;;;5031202;28;20452;-80
2023/12/13 08:23:03;;;;;;;6.13;2.40;;;9.80;99.90;;;;;;5033024;28;20452;-80
2023/12/13 08:25:30;;;;;;;5.57;2.10;;;9.90;99.90;;;;;;5030136;28;20463;-80
2023/12/13 08:27:57;;;;;;;7.07;3.37;;;9.90;99.90;;;;;;5030283;28;20471;-80
2023/12/13 08:30:25;;;;;;;6.67;2.43;;;10.00;99.90;;;;;;5030554;28;20459;-79
2023/12/13 08:32:52;;;;;;;9.60;3.13;;;10.00;99.90;;;;;;5028580;28;20461;-79
2023/12/13 08:35:18;;;;;;;7.80;2.37;;;10.00;99.90;;;;;;5033809;28;20457;-79
2023/12/13 08:37:46;;;;;;;9.50;2.30;;;10.00;99.90;;;;;;5036979;28;20489;-80
2023/12/13 08:40:13;;;;;;;13.10;3.33;;;10.00;99.90;;;;;;5029148;28;20475;-79
2023/12/13 08:42:40;;;;;;;5.53;2.27;;;10.00;99.90;;;;;;5032952;28;20467;-79
2023/12/13 08:45:09;;;;;;;7.80;2.60;;;9.90;99.90;;;;;;5029085;28;20456;-79
2023/12/13 08:47:36;;;;;;;5.00;2.13;;;9.90;99.90;;;;;;5032112;28;20455;-79
2023/12/13 08:50:03;;;;;;;6.97;2.43;;;9.80;99.90;;;;;;5034705;28;21019;-79
2023/12/13 08:52:30;;;;;;;8.97;2.80;;;9.80;99.90;;;;;;5029475;28;20465;-80
2023/12/13 08:54:59;;;;;;;4.27;2.50;;;9.80;99.90;;;;;;5032010;28;20445;-79
2023/12/13 08:57:25;;;;;;;6.23;2.90;;;9.70;99.90;;;;;;5029846;28;20502;-78
2023/12/13 08:59:52;;;;;;;4.17;2.70;;;9.90;99.90;;;;;;5029149;28;20483;-78
2023/12/13 09:02:19;;;;;;;8.33;2.43;;;9.90;99.90;;;;;;5030206;28;20448;-79
2023/12/13 09:04:46;;;;;;;10.07;2.60;;;9.90;99.90;;;;;;5026844;28;20448;-79
2023/12/13 09:07:12;;;;;;;8.07;2.20;;;10.00;99.90;;;;;;5029076;28;20490;-79
2023/12/13 09:09:39;;;;;;;5.40;2.70;;;10.00;99.90;;;;;;5027531;28;20480;-78
2023/12/13 09:12:08;;;;;;;5.70;2.23;;;10.20;99.90;;;;;;5033212;28;20901;-77
2023/12/13 09:14:34;;;;;;;3.10;2.13;;;10.30;99.90;;;;;;5032395;28;20499;-78
2023/12/13 09:17:03;;;;;;;11.53;2.80;;;10.40;99.90;;;;;;5027278;28;20497;-78
2023/12/13 09:19:30;;;;;;;7.40;2.63;;;10.40;99.90;;;;;;5033088;28;20534;-78
2023/12/13 09:21:57;;;;;;;4.77;2.60;;;10.50;99.90;;;;;;5033815;28;20833;-79
2023/12/13 09:24:24;;;;;;;6.83;2.30;;;10.60;99.90;;;;;;5033261;28;20451;-79
2023/12/13 09:26:51;;;;;;;7.57;2.53;;;10.60;99.90;;;;;;5032309;28;20471;-79
2023/12/13 09:29:19;;;;;;;4.50;2.13;;;10.60;99.90;;;;;;5029804;28;20499;-78
2023/12/13 09:31:46;;;;;;;8.07;2.40;;;10.80;99.90;;;;;;5035562;28;20503;-79
2023/12/13 09:34:14;;;;;;;6.83;3.10;;;10.90;99.90;;;;;;5030911;28;20489;-80
2023/12/13 09:36:41;;;;;;;4.80;2.00;;;11.00;99.90;;;;;;5028306;28;20588;-80
2023/12/13 09:39:09;;;;;;;6.87;2.33;;;11.00;99.90;;;;;;5031132;28;20481;-80
2023/12/13 09:41:44;;;;;;;5.90;2.00;;;11.10;99.90;;;;;;5033349;28;20449;-80
2023/12/13 09:44:12;;;;;;;3.40;1.70;;;11.20;99.90;;;;;;5031421;28;20508;-81
2023/12/13 09:46:41;;;;;;;10.60;2.33;;;11.30;99.90;;;;;;5031712;28;20481;-80
2023/12/13 09:49:11;;;;;;;6.50;2.00;;;11.40;99.90;;;;;;5033562;28;20492;-81
2023/12/13 09:51:39;;;;;;;3.90;2.00;;;11.40;99.90;;;;;;5032173;28;20447;-80
2023/12/13 09:54:10;;;;;;;6.70;4.33;;;11.20;99.90;;;;;;5032785;28;20978;-81
2023/12/13 09:56:37;;;;;;;7.63;3.40;;;11.10;99.90;;;;;;5034998;28;20542;-80
2023/12/13 09:59:03;;;;;;;6.40;2.40;;;11.10;99.90;;;;;;5029934;28;20602;-79
2023/12/13 10:01:30;;;;;;;5.27;1.93;;;11.20;99.90;;;;;;5028523;28;20468;-77
2023/12/13 10:03:58;;;;;;;9.10;2.40;;;11.40;99.90;;;;;;5032188;28;20455;-79
2023/12/13 10:06:25;;;;;;;6.70;1.57;;;11.50;99.90;;;;;;5030123;28;20459;-79
2023/12/13 10:08:58;;;;;;;5.90;2.17;;;11.50;99.90;;;;;;5021027;28;20460;-79
2023/12/13 10:12:02;;;;;;;8.37;1.67;;;11.60;99.90;;;;;;5024800;28;20516;-79
2023/12/13 10:14:29;;;;;;;5.23;2.17;;;11.60;99.90;;;;;;5022868;28;20464;-78
2023/12/13 10:16:57;;;;;;;7.50;1.63;;;11.70;99.90;;;;;;5039522;28;20505;-78
2023/12/13 10:19:26;;;;;;;5.37;1.70;;;11.90;99.90;;;;;;5040248;28;20501;-78
2023/12/13 10:21:53;;;;;;;7.73;1.60;;;11.90;99.90;;;;;;5034670;28;20449;-77
2023/12/13 10:24:23;;;;;;;6.57;2.33;;;11.90;99.90;;;;;;5028831;28;20450;-76
2023/12/13 10:26:51;;;;;;;10.43;2.50;;;11.90;99.90;;;;;;5048722;28;20425;-78
2023/12/13 10:29:21;;;;;;;9.20;2.07;;;11.90;99.90;;;;;;5029920;28;20472;-78
2023/12/13 10:31:48;;;;;;;5.80;1.70;;;11.90;99.90;;;;;;5033136;28;20444;-79
2023/12/13 10:34:15;;;;;;;6.77;2.10;;;11.80;99.90;;;;;;5035290;28;20536;-79
2023/12/13 10:36:43;;;;;;;5.53;1.73;;;11.60;99.90;;;;;;5031834;28;20484;-78
2023/12/13 10:39:13;;;;;;;8.30;2.30;;;11.50;99.90;;;;;;5037541;28;20481;-77
2023/12/13 10:41:44;;;;;;;13.93;2.93;;;11.30;99.90;;;;;;5032057;28;20901;-78
2023/12/13 10:44:15;;;;;;;7.53;2.53;;;11.30;99.90;;;;;;5038243;28;20461;-78
2023/12/13 10:46:46;;;;;;;7.13;2.07;;;11.60;99.90;;;;;;5023812;28;20480;-77
2023/12/13 10:49:16;;;;;;;7.13;1.97;;;12.10;99.90;;;;;;5038017;28;20485;-78
2023/12/13 10:51:45;;;;;;;6.10;2.83;;;12.20;99.90;;;;;;5033625;28;20484;-78
2023/12/13 10:54:13;;;;;;;5.40;2.10;;;12.40;99.90;;;;;;5030818;28;20457;-78
2023/12/13 10:56:40;;;;;;;5.60;2.30;;;12.30;99.90;;;;;;5032125;28;20464;-79
2023/12/13 10:59:09;;;;;;;4.70;1.73;;;12.10;99.90;;;;;;5033761;28;20842;-78
2023/12/13 11:01:38;;;;;;;8.33;2.50;;;11.80;99.90;;;;;;5039933;28;20544;-79
2023/12/13 11:04:08;;;;;;;7.27;2.50;;;11.50;99.90;;;;;;5033015;28;20467;-79
2023/12/13 11:06:36;;;;;;;6.27;2.30;;;11.30;99.90;;;;;;5034233;28;20503;-79
2023/12/13 11:09:13;;;;;;;6.80;2.00;;;11.30;99.90;;;;;;5032325;28;20923;-79
2023/12/13 11:11:40;;;;;;;7.30;2.03;;;11.30;99.90;;;;;;5033148;28;20837;-79
2023/12/13 11:14:15;;;;;;;5.87;1.90;;;11.20;99.90;;;;;;5033751;28;20460;-79
2023/12/13 11:16:49;;;;;;;6.00;3.60;;;10.90;99.90;;;;;;5022693;28;20464;-79
2023/12/13 11:19:22;;;;;;;8.07;3.07;;;10.70;99.90;;;;;;5035281;28;20492;-79
2023/12/13 11:22:14;;;;;;;10.67;2.13;;;10.60;99.90;;;;;;5040029;28;20462;-78
2023/12/13 11:24:44;;;;;;;11.00;2.70;;;10.60;99.90;;;;;;5029883;28;20453;-79
2023/12/13 11:27:13;;;;;;;6.93;2.80;;;10.50;99.90;;;;;;5034237;28;20977;-79
2023/12/13 11:29:45;;;;;;;5.93;2.57;;;10.50;99.90;;;;;;5032908;28;20467;-79
2023/12/13 11:32:12;;;;;;;6.37;2.40;;;10.60;99.90;;;;;;5033540;28;21001;-79
2023/12/13 11:34:42;;;;;;;9.00;2.60;;;10.70;99.90;;;;;;5041831;28;20452;-78
2023/12/13 11:37:11;;;;;;;10.70;2.70;;;10.70;99.90;;;;;;5034125;28;20488;-78
2023/12/13 11:39:46;;;;;;;9.17;3.13;;;10.70;99.90;;;;;;5033384;28;20471;-78
2023/12/13 11:42:15;;;;;;;3.77;2.03;;;10.70;99.90;;;;;;5032547;28;20479;-79
2023/12/13 11:44:42;;;;;;;5.50;2.10;;;10.90;99.90;;;;;;5040427;28;20452;-78
2023/12/13 11:47:13;;;;;;;5.60;2.73;;;11.10;99.90;;;;;;5042357;28;20482;-78
2023/12/13 11:49:42;;;;;;;7.83;2.50;;;11.00;99.90;;;;;;5032461;28;21002;-79
2023/12/13 11:52:10;;;;;;;5.37;2.27;;;11.10;99.90;;;;;;5031323;28;20483;-78
2023/12/13 11:54:38;;;;;;;5.80;2.10;;;11.20;99.90;;;;;;5034768;28;20482;-78
2023/12/13 11:57:14;;;;;;;4.43;2.20;;;11.30;99.90;;;;;;5034022;28;20468;-78
2023/12/13 11:59:42;;;;;;;5.40;2.30;;;11.30;99.90;;;;;;5037365;28;20456;-79
2023/12/13 12:02:09;;;;;;;5.67;2.10;;;11.50;99.90;;;;;;5038157;28;20456;-79
2023/12/13 12:04:44;;;;;;;6.33;2.33;;;11.70;99.90;;;;;;5037312;28;20449;-80
2023/12/13 12:07:20;;;;;;;5.90;2.20;;;11.80;99.90;;;;;;5031438;28;20965;-80
2023/12/13 12:09:48;;;;;;;5.40;2.10;;;11.90;99.90;;;;;;5035703;28;20875;-79
2023/12/13 12:12:17;;;;;;;6.23;2.47;;;11.90;99.90;;;;;;5035768;28;20507;-79
2023/12/13 12:14:49;;;;;;;5.43;1.90;;;11.90;99.90;;;;;;5035910;28;20551;-79
2023/12/13 12:17:19;;;;;;;5.47;1.50;;;11.80;99.90;;;;;;5035263;28;20485;-80
2023/12/13 12:19:45;;;;;;;3.30;1.57;;;11.70;99.90;;;;;;5034847;28;20493;-80
2023/12/13 12:22:13;;;;;;;3.30;2.13;;;11.40;99.90;;;;;;5045424;28;20493;-80
2023/12/13 12:24:51;;;;;;;7.33;2.57;;;11.30;99.90;;;;;;5028190;28;20452;-81
2023/12/13 12:27:24;;;;;;;4.20;2.60;;;11.30;99.90;;;;;;5037908;28;20449;-79
2023/12/13 12:29:51;;;;;;;8.40;3.80;;;11.20;99.90;;;;;;5032763;28;20473;-78
2023/12/13 12:32:18;;;;;;;7.30;3.50;;;11.00;99.90;;;;;;5031210;28;20456;-78
2023/12/13 12:34:48;;;;;;;4.97;2.30;;;10.60;99.90;;;;;;5039413;28;20893;-80
2023/12/13 12:37:16;;;;;;;5.00;2.13;;;10.70;99.90;;;;;;5035108;28;20508;-81
2023/12/13 12:39:42;;;;;;;7.70;2.17;;;10.70;99.90;;;;;;5034620;28;20464;-79
2023/12/13 12:42:09;;;;;;;5.50;2.17;;;10.60;99.90;;;;;;5037170;28;20450;-81
2023/12/13 12:44:37;;;;;;;3.30;1.70;;;10.60;99.90;;;;;;5033891;28;20558;-78
2023/12/13 12:47:04;;;;;;;4.63;1.83;;;10.50;99.90;;;;;;5036208;28;20456;-80
2023/12/13 12:49:31;;;;;;;3.30;2.27;;;10.50;99.90;;;;;;5034812;28;20486;-80
2023/12/13 12:51:58;;;;;;;5.97;2.30;;;10.40;99.90;;;;;;5034307;28;20455;-80
2023/12/13 12:54:35;;;;;;;3.30;1.90;;;10.40;99.90;;;;;;5030129;28;20999;-80
2023/12/13 12:57:14;;;;;;;4.73;2.03;;;10.30;99.90;;;;;;5037247;28;20456;-79